Terminal Aerodrome Forecast
Issued by NWS Raleigh/Durham, NC

Home | Current Version | Previous Version | Text Only | Print | Product List | Glossary On
Versions: 1 2 3 4 5 6 7 8 9 10 11 12 13 14 15 16 17 18 19 20 21 22 23 24 25 26 27 28 29 30 31 32
821
FTUS42 KRAH 140522
TAFRDU
TAF
KRDU 140522Z 1406/1506 22010KT P6SM SKC
     FM141500 26009KT P6SM FEW250
     FM142200 VRB03KT P6SM FEW200=

USA.gov is the U.S. government's official web portal to all federal, state and local government web resources and services.